sensor_id;sensor_type;location;lat;lon;timestamp;pressure;altitude;pressure_sealevel;temperature;humidity
51289;BME280;37372;52.294;5.152;2023-03-20T00:02:06;101934.72;;;7.74;79.09
51289;BME280;37372;52.294;5.152;2023-03-20T00:04:36;101926.41;;;7.68;79.46
51289;BME280;37372;52.294;5.152;2023-03-20T00:07:01;101922.53;;;7.77;78.94
51289;BME280;37372;52.294;5.152;2023-03-20T00:09:37;101928.94;;;7.69;78.83
51289;BME280;37372;52.294;5.152;2023-03-20T00:12:03;101918.22;;;7.82;78.96
51289;BME280;37372;52.294;5.152;2023-03-20T00:14:50;101927.72;;;7.72;79.25
51289;BME280;37372;52.294;5.152;2023-03-20T00:17:19;101920.41;;;7.87;78.86
51289;BME280;37372;52.294;5.152;2023-03-20T00:19:45;101912.28;;;7.79;78.31
51289;BME280;37372;52.294;5.152;2023-03-20T00:22:11;101916.53;;;7.81;78.50
51289;BME280;37372;52.294;5.152;2023-03-20T00:24:54;101900.16;;;7.81;78.23
51289;BME280;37372;52.294;5.152;2023-03-20T00:27:20;101898.16;;;7.75;78.34
51289;BME280;37372;52.294;5.152;2023-03-20T00:29:46;101901.94;;;7.74;78.05
51289;BME280;37372;52.294;5.152;2023-03-20T00:32:12;101905.22;;;7.70;78.60
51289;BME280;37372;52.294;5.152;2023-03-20T00:34:44;101903.22;;;7.78;77.73
51289;BME280;37372;52.294;5.152;2023-03-20T00:37:10;101910.28;;;7.73;78.38
51289;BME280;37372;52.294;5.152;2023-03-20T00:39:40;101919.81;;;7.77;77.42
51289;BME280;37372;52.294;5.152;2023-03-20T00:42:06;101927.06;;;7.84;77.42
51289;BME280;37372;52.294;5.152;2023-03-20T00:44:54;101942.91;;;7.74;77.59
51289;BME280;37372;52.294;5.152;2023-03-20T00:47:21;101952.28;;;7.72;76.89
51289;BME280;37372;52.294;5.152;2023-03-20T00:49:49;101957.69;;;7.80;76.23
51289;BME280;37372;52.294;5.152;2023-03-20T00:52:17;101956.78;;;7.87;75.38
51289;BME280;37372;52.294;5.152;2023-03-20T00:55:02;101967.09;;;7.77;75.36
51289;BME280;37372;52.294;5.152;2023-03-20T01:03:25;101921.50;;;7.78;74.10
51289;BME280;37372;52.294;5.152;2023-03-20T01:05:52;101933.25;;;7.64;75.55
51289;BME280;37372;52.294;5.152;2023-03-20T01:08:23;101943.34;;;7.63;75.52
51289;BME280;37372;52.294;5.152;2023-03-20T01:10:54;101956.72;;;7.73;74.70
51289;BME280;37372;52.294;5.152;2023-03-20T01:13:26;101961.41;;;7.64;74.87
51289;BME280;37372;52.294;5.152;2023-03-20T01:15:52;101950.59;;;7.71;74.14
51289;BME280;37372;52.294;5.152;2023-03-20T01:18:21;101943.66;;;7.83;73.67
51289;BME280;37372;52.294;5.152;2023-03-20T01:20:49;101954.91;;;7.65;74.10
51289;BME280;37372;52.294;5.152;2023-03-20T01:23:15;101960.03;;;7.68;74.63
51289;BME280;37372;52.294;5.152;2023-03-20T01:25:41;101955.09;;;7.64;74.66
51289;BME280;37372;52.294;5.152;2023-03-20T01:28:27;101948.25;;;7.68;74.46
51289;BME280;37372;52.294;5.152;2023-03-20T01:30:54;101954.91;;;7.65;73.75
51289;BME280;37372;52.294;5.152;2023-03-20T01:33:22;101956.44;;;7.68;74.24
51289;BME280;37372;52.294;5.152;2023-03-20T01:35:49;101955.59;;;7.67;75.06
51289;BME280;37372;52.294;5.152;2023-03-20T01:38:26;101954.63;;;7.60;74.82
51289;BME280;37372;52.294;5.152;2023-03-20T01:43:30;101943.84;;;7.44;75.53
51289;BME280;37372;52.294;5.152;2023-03-20T01:48:55;101942.69;;;7.38;75.53
51289;BME280;37372;52.294;5.152;2023-03-20T01:51:29;101950.41;;;7.35;76.16
51289;BME280;37372;52.294;5.152;2023-03-20T01:54:24;101947.19;;;7.31;76.63
51289;BME280;37372;52.294;5.152;2023-03-20T02:02:25;101938.50;;;7.27;76.89
51289;BME280;37372;52.294;5.152;2023-03-20T02:05:07;101942.09;;;7.28;77.10
51289;BME280;37372;52.294;5.152;2023-03-20T02:07:34;101941.91;;;7.29;77.27
51289;BME280;37372;52.294;5.152;2023-03-20T02:10:12;101940.22;;;7.28;77.63
51289;BME280;37372;52.294;5.152;2023-03-20T02:12:39;101925.44;;;7.23;77.53
51289;BME280;37372;52.294;5.152;2023-03-20T02:15:06;101918.53;;;7.27;77.23
51289;BME280;37372;52.294;5.152;2023-03-20T02:17:32;101915.34;;;7.23;77.21
51289;BME280;37372;52.294;5.152;2023-03-20T02:28:53;101913.94;;;7.27;76.75
51289;BME280;37372;52.294;5.152;2023-03-20T02:40:29;101911.47;;;7.41;76.28
51289;BME280;37372;52.294;5.152;2023-03-20T02:43:20;101909.47;;;7.35;76.27
51289;BME280;37372;52.294;5.152;2023-03-20T02:46:00;101903.31;;;7.32;76.05
51289;BME280;37372;52.294;5.152;2023-03-20T02:48:56;101879.69;;;7.25;75.59
51289;BME280;37372;52.294;5.152;2023-03-20T02:51:34;101857.38;;;7.21;76.05
51289;BME280;37372;52.294;5.152;2023-03-20T02:54:10;101855.56;;;7.14;75.93
51289;BME280;37372;52.294;5.152;2023-03-20T02:57:04;101854.59;;;7.06;76.56
51289;BME280;37372;52.294;5.152;2023-03-20T02:59:44;101849.13;;;7.06;76.34
51289;BME280;37372;52.294;5.152;2023-03-20T03:02:15;101854.34;;;7.16;75.81
51289;BME280;37372;52.294;5.152;2023-03-20T03:05:15;101867.03;;;7.09;75.79
51289;BME280;37372;52.294;5.152;2023-03-20T03:07:44;101864.88;;;7.19;75.53
51289;BME280;37372;52.294;5.152;2023-03-20T03:10:22;101875.09;;;7.02;75.69
51289;BME280;37372;52.294;5.152;2023-03-20T03:12:52;101872.53;;;7.01;76.01
51289;BME280;37372;52.294;5.152;2023-03-20T03:15:32;101878.84;;;7.01;75.82
51289;BME280;37372;52.294;5.152;2023-03-20T03:17:59;101876.50;;;6.98;76.05
51289;BME280;37372;52.294;5.152;2023-03-20T03:20:29;101873.94;;;6.97;75.84
51289;BME280;37372;52.294;5.152;2023-03-20T03:22:57;101865.06;;;6.95;76.09
51289;BME280;37372;52.294;5.152;2023-03-20T03:25:26;101871.22;;;6.97;76.01
51289;BME280;37372;52.294;5.152;2023-03-20T03:28:32;101858.63;;;6.96;75.30
51289;BME280;37372;52.294;5.152;2023-03-20T03:31:10;101862.34;;;6.95;75.56
51289;BME280;37372;52.294;5.152;2023-03-20T03:33:40;101866.31;;;6.92;76.39
51289;BME280;37372;52.294;5.152;2023-03-20T03:36:30;101854.34;;;6.93;76.39
51289;BME280;37372;52.294;5.152;2023-03-20T03:47:30;101826.97;;;6.87;75.81
51289;BME280;37372;52.294;5.152;2023-03-20T03:50:26;101826.66;;;6.82;75.97
51289;BME280;37372;52.294;5.152;2023-03-20T03:52:57;101827.47;;;6.90;75.21
51289;BME280;37372;52.294;5.152;2023-03-20T03:55:29;101829.03;;;6.85;75.42
51289;BME280;37372;52.294;5.152;2023-03-20T03:58:07;101835.91;;;6.95;75.21
51289;BME280;37372;52.294;5.152;2023-03-20T04:00:36;101823.53;;;7.07;74.30
51289;BME280;37372;52.294;5.152;2023-03-20T04:03:19;101830.66;;;6.94;74.56
51289;BME280;37372;52.294;5.152;2023-03-20T04:05:52;101826.22;;;6.93;74.92
51289;BME280;37372;52.294;5.152;2023-03-20T04:08:21;101819.19;;;6.75;75.30
51289;BME280;37372;52.294;5.152;2023-03-20T04:10:46;101823.28;;;6.79;75.59
51289;BME280;37372;52.294;5.152;2023-03-20T04:13:12;101831.06;;;6.83;75.49
51289;BME280;37372;52.294;5.152;2023-03-20T04:15:38;101827.16;;;6.85;75.21
51289;BME280;37372;52.294;5.152;2023-03-20T04:18:04;101827.69;;;6.81;75.69
51289;BME280;37372;52.294;5.152;2023-03-20T04:20:32;101829.75;;;6.78;75.78
51289;BME280;37372;52.294;5.152;2023-03-20T04:22:58;101838.53;;;6.89;74.48
51289;BME280;37372;52.294;5.152;2023-03-20T04:25:33;101830.34;;;6.89;75.14
51289;BME280;37372;52.294;5.152;2023-03-20T04:27:59;101828.19;;;6.84;75.05
51289;BME280;37372;52.294;5.152;2023-03-20T04:30:42;101823.38;;;6.86;74.89
51289;BME280;37372;52.294;5.152;2023-03-20T04:33:12;101830.00;;;6.92;75.03
51289;BME280;37372;52.294;5.152;2023-03-20T04:35:38;101825.81;;;6.81;74.77
51289;BME280;37372;52.294;5.152;2023-03-20T04:38:03;101816.31;;;6.77;75.49
51289;BME280;37372;52.294;5.152;2023-03-20T04:40:35;101823.09;;;6.81;75.02
51289;BME280;37372;52.294;5.152;2023-03-20T04:43:01;101824.50;;;6.77;75.47
51289;BME280;37372;52.294;5.152;2023-03-20T04:45:37;101820.72;;;6.78;75.41
51289;BME280;37372;52.294;5.152;2023-03-20T04:48:03;101822.13;;;6.74;75.73
51289;BME280;37372;52.294;5.152;2023-03-20T04:50:37;101815.47;;;6.76;75.52
51289;BME280;37372;52.294;5.152;2023-03-20T04:53:05;101811.88;;;6.76;75.50
51289;BME280;37372;52.294;5.152;2023-03-20T04:55:38;101814.59;;;6.76;75.48
51289;BME280;37372;52.294;5.152;2023-03-20T04:58:04;101813.28;;;6.72;75.59
51289;BME280;37372;52.294;5.152;2023-03-20T05:00:51;101794.78;;;6.82;75.03
51289;BME280;37372;52.294;5.152;2023-03-20T05:03:20;101793.69;;;6.68;76.16
51289;BME280;37372;52.294;5.152;2023-03-20T05:05:46;101809.81;;;6.78;75.45
51289;BME280;37372;52.294;5.152;2023-03-20T05:08:11;101807.09;;;6.78;75.39
51289;BME280;37372;52.294;5.152;2023-03-20T05:10:37;101809.91;;;6.70;75.00
51289;BME280;37372;52.294;5.152;2023-03-20T05:13:04;101812.53;;;6.55;76.09
51289;BME280;37372;52.294;5.152;2023-03-20T05:15:44;101806.47;;;6.68;75.75
51289;BME280;37372;52.294;5.152;2023-03-20T05:18:09;101801.41;;;6.65;76.17
51289;BME280;37372;52.294;5.152;2023-03-20T05:20:43;101807.00;;;6.63;76.41
51289;BME280;37372;52.294;5.152;2023-03-20T05:23:09;101804.66;;;6.60;75.92
51289;BME280;37372;52.294;5.152;2023-03-20T05:25:49;101795.94;;;6.65;76.06
51289;BME280;37372;52.294;5.152;2023-03-20T05:28:15;101810.75;;;6.70;75.45
51289;BME280;37372;52.294;5.152;2023-03-20T05:30:43;101812.25;;;6.73;75.27
51289;BME280;37372;52.294;5.152;2023-03-20T05:33:09;101819.16;;;6.61;76.19
51289;BME280;37372;52.294;5.152;2023-03-20T05:35:47;101822.19;;;6.66;75.78
51289;BME280;37372;52.294;5.152;2023-03-20T05:38:14;101818.22;;;6.68;75.74
51289;BME280;37372;52.294;5.152;2023-03-20T05:40:48;101823.94;;;6.59;76.19
51289;BME280;37372;52.294;5.152;2023-03-20T05:43:14;101821.81;;;6.46;77.24
51289;BME280;37372;52.294;5.152;2023-03-20T05:45:49;101822.13;;;6.51;76.62
51289;BME280;37372;52.294;5.152;2023-03-20T05:48:24;101816.66;;;6.51;76.74
51289;BME280;37372;52.294;5.152;2023-03-20T05:50:50;101815.44;;;6.54;76.71
51289;BME280;37372;52.294;5.152;2023-03-20T05:53:21;101811.69;;;6.55;76.95
51289;BME280;37372;52.294;5.152;2023-03-20T05:55:59;101819.22;;;6.53;77.23
51289;BME280;37372;52.294;5.152;2023-03-20T05:58:24;101818.28;;;6.60;76.61
51289;BME280;37372;52.294;5.152;2023-03-20T06:00:50;101820.41;;;6.50;77.15
51289;BME280;37372;52.294;5.152;2023-03-20T06:03:16;101809.88;;;6.47;77.47
51289;BME280;37372;52.294;5.152;2023-03-20T06:05:53;101814.22;;;6.56;77.01
51289;BME280;37372;52.294;5.152;2023-03-20T06:08:20;101815.06;;;6.57;77.15
51289;BME280;37372;52.294;5.152;2023-03-20T06:10:52;101811.16;;;6.59;76.88
51289;BME280;37372;52.294;5.152;2023-03-20T06:13:20;101815.81;;;6.73;76.14
51289;BME280;37372;52.294;5.152;2023-03-20T06:15:55;101817.50;;;6.74;76.30
51289;BME280;37372;52.294;5.152;2023-03-20T06:18:23;101823.88;;;6.67;76.83
51289;BME280;37372;52.294;5.152;2023-03-20T06:20:55;101823.38;;;6.63;76.86
51289;BME280;37372;52.294;5.152;2023-03-20T06:23:22;101832.31;;;6.57;77.07
51289;BME280;37372;52.294;5.152;2023-03-20T06:26:06;101831.41;;;6.65;77.06
51289;BME280;37372;52.294;5.152;2023-03-20T06:28:32;101831.56;;;6.63;77.23
51289;BME280;37372;52.294;5.152;2023-03-20T06:31:04;101824.06;;;6.65;76.78
51289;BME280;37372;52.294;5.152;2023-03-20T06:33:29;101833.16;;;6.58;77.33
51289;BME280;37372;52.294;5.152;2023-03-20T06:36:04;101825.22;;;6.71;76.82
51289;BME280;37372;52.294;5.152;2023-03-20T06:38:32;101829.56;;;6.57;78.05
51289;BME280;37372;52.294;5.152;2023-03-20T06:41:04;101829.25;;;6.52;77.87
51289;BME280;37372;52.294;5.152;2023-03-20T06:43:31;101832.78;;;6.61;77.60
51289;BME280;37372;52.294;5.152;2023-03-20T06:46:01;101830.59;;;6.56;77.97
51289;BME280;37372;52.294;5.152;2023-03-20T06:48:28;101829.31;;;6.67;78.13
51289;BME280;37372;52.294;5.152;2023-03-20T06:50:59;101836.91;;;6.79;76.52
51289;BME280;37372;52.294;5.152;2023-03-20T06:53:25;101830.22;;;6.82;76.70
51289;BME280;37372;52.294;5.152;2023-03-20T06:55:56;101836.53;;;6.83;76.42
51289;BME280;37372;52.294;5.152;2023-03-20T06:58:22;101830.78;;;6.77;76.92
51289;BME280;37372;52.294;5.152;2023-03-20T07:00:58;101820.47;;;6.88;76.91
51289;BME280;37372;52.294;5.152;2023-03-20T07:03:23;101828.78;;;6.94;76.48
51289;BME280;37372;52.294;5.152;2023-03-20T07:06:03;101824.31;;;6.78;76.52
51289;BME280;37372;52.294;5.152;2023-03-20T07:08:34;101828.53;;;6.81;76.68
51289;BME280;37372;52.294;5.152;2023-03-20T07:11:06;101842.38;;;6.79;76.66
51289;BME280;37372;52.294;5.152;2023-03-20T07:13:32;101839.22;;;6.91;76.54
51289;BME280;37372;52.294;5.152;2023-03-20T07:16:06;101848.13;;;6.85;76.96
51289;BME280;37372;52.294;5.152;2023-03-20T07:18:32;101845.41;;;6.85;77.20
51289;BME280;37372;52.294;5.152;2023-03-20T07:21:04;101846.59;;;6.82;77.61
51289;BME280;37372;52.294;5.152;2023-03-20T07:23:31;101855.28;;;7.09;75.83
51289;BME280;37372;52.294;5.152;2023-03-20T07:26:05;101863.94;;;7.12;75.59
51289;BME280;37372;52.294;5.152;2023-03-20T07:28:31;101857.88;;;7.02;75.99
51289;BME280;37372;52.294;5.152;2023-03-20T07:31:16;101857.09;;;6.93;76.52
51289;BME280;37372;52.294;5.152;2023-03-20T07:33:44;101845.63;;;6.98;75.71
51289;BME280;37372;52.294;5.152;2023-03-20T07:36:10;101848.66;;;7.03;75.64
51289;BME280;37372;52.294;5.152;2023-03-20T07:38:35;101857.75;;;6.95;75.61
51289;BME280;37372;52.294;5.152;2023-03-20T07:41:10;101845.25;;;7.01;75.59
51289;BME280;37372;52.294;5.152;2023-03-20T07:43:36;101848.66;;;7.03;75.37
51289;BME280;37372;52.294;5.152;2023-03-20T07:46:25;101849.22;;;6.98;75.79
51289;BME280;37372;52.294;5.152;2023-03-20T07:48:51;101853.44;;;7.01;75.05
51289;BME280;37372;52.294;5.152;2023-03-20T07:51:27;101851.00;;;7.06;75.34
51289;BME280;37372;52.294;5.152;2023-03-20T07:53:52;101852.44;;;7.02;76.03
51289;BME280;37372;52.294;5.152;2023-03-20T07:56:18;101855.63;;;7.05;75.90
51289;BME280;37372;52.294;5.152;2023-03-20T07:58:43;101852.25;;;7.03;76.04
51289;BME280;37372;52.294;5.152;2023-03-20T08:01:09;101852.28;;;7.18;74.78
51289;BME280;37372;52.294;5.152;2023-03-20T08:03:34;101846.19;;;7.31;73.93
51289;BME280;37372;52.294;5.152;2023-03-20T08:06:10;101857.00;;;7.24;74.33
51289;BME280;37372;52.294;5.152;2023-03-20T08:08:36;101848.81;;;7.24;74.76
51289;BME280;37372;52.294;5.152;2023-03-20T08:11:10;101858.34;;;7.28;74.49
51289;BME280;37372;52.294;5.152;2023-03-20T08:13:38;101853.78;;;7.21;74.91
51289;BME280;37372;52.294;5.152;2023-03-20T08:16:13;101846.47;;;7.21;74.42
51289;BME280;37372;52.294;5.152;2023-03-20T08:18:38;101852.41;;;7.25;75.13
51289;BME280;37372;52.294;5.152;2023-03-20T08:21:11;101853.25;;;7.25;74.24
51289;BME280;37372;52.294;5.152;2023-03-20T08:23:36;101852.06;;;7.43;74.10
51289;BME280;37372;52.294;5.152;2023-03-20T08:26:14;101850.38;;;7.42;73.77
51289;BME280;37372;52.294;5.152;2023-03-20T08:28:40;101850.84;;;7.45;74.06
51289;BME280;37372;52.294;5.152;2023-03-20T08:31:23;101859.16;;;7.67;73.75
51289;BME280;37372;52.294;5.152;2023-03-20T08:33:49;101859.31;;;7.65;73.24
51289;BME280;37372;52.294;5.152;2023-03-20T08:36:15;101855.59;;;7.81;73.59
51289;BME280;37372;52.294;5.152;2023-03-20T08:38:47;101853.06;;;7.79;74.52
51289;BME280;37372;52.294;5.152;2023-03-20T08:41:18;101852.94;;;7.73;75.90
51289;BME280;37372;52.294;5.152;2023-03-20T08:43:44;101858.50;;;7.65;76.14
51289;BME280;37372;52.294;5.152;2023-03-20T08:46:16;101855.19;;;7.84;75.33
51289;BME280;37372;52.294;5.152;2023-03-20T08:48:41;101852.38;;;7.63;76.01
51289;BME280;37372;52.294;5.152;2023-03-20T08:51:18;101851.72;;;7.60;77.12
51289;BME280;37372;52.294;5.152;2023-03-20T08:53:44;101853.59;;;7.75;76.20
51289;BME280;37372;52.294;5.152;2023-03-20T08:56:15;101856.25;;;7.68;77.17
51289;BME280;37372;52.294;5.152;2023-03-20T08:58:41;101851.63;;;7.69;77.01
51289;BME280;37372;52.294;5.152;2023-03-20T09:01:35;101851.91;;;7.74;77.50
51289;BME280;37372;52.294;5.152;2023-03-20T09:04:01;101853.13;;;7.71;77.59
51289;BME280;37372;52.294;5.152;2023-03-20T09:06:26;101853.47;;;7.39;78.18
51289;BME280;37372;52.294;5.152;2023-03-20T09:08:54;101856.69;;;7.72;78.14
51289;BME280;37372;52.294;5.152;2023-03-20T09:11:22;101852.94;;;7.73;77.68
51289;BME280;37372;52.294;5.152;2023-03-20T09:13:55;101851.81;;;7.82;77.78
51289;BME280;37372;52.294;5.152;2023-03-20T09:16:31;101858.38;;;7.73;77.80
51289;BME280;37372;52.294;5.152;2023-03-20T09:18:58;101850.22;;;7.87;77.81
51289;BME280;37372;52.294;5.152;2023-03-20T09:21:32;101846.53;;;8.10;77.56
51289;BME280;37372;52.294;5.152;2023-03-20T09:23:57;101845.47;;;8.11;77.06
51289;BME280;37372;52.294;5.152;2023-03-20T09:26:35;101853.78;;;8.03;76.89
51289;BME280;37372;52.294;5.152;2023-03-20T09:29:05;101844.06;;;8.15;77.10
51289;BME280;37372;52.294;5.152;2023-03-20T09:31:33;101842.50;;;8.06;78.26
51289;BME280;37372;52.294;5.152;2023-03-20T09:33:59;101843.44;;;8.13;77.46
51289;BME280;37372;52.294;5.152;2023-03-20T09:36:33;101838.91;;;8.05;77.80
51289;BME280;37372;52.294;5.152;2023-03-20T09:39:03;101834.75;;;8.09;78.28
51289;BME280;37372;52.294;5.152;2023-03-20T09:41:32;101832.03;;;7.95;77.68
51289;BME280;37372;52.294;5.152;2023-03-20T09:44:07;101832.66;;;8.26;77.20
51289;BME280;37372;52.294;5.152;2023-03-20T09:46:43;101837.66;;;8.23;77.32
51289;BME280;37372;52.294;5.152;2023-03-20T09:52:20;101840.19;;;8.24;76.88
51289;BME280;37372;52.294;5.152;2023-03-20T09:55:00;101846.31;;;8.26;79.24
51289;BME280;37372;52.294;5.152;2023-03-20T09:57:45;101842.53;;;8.42;75.67
51289;BME280;37372;52.294;5.152;2023-03-20T10:00:21;101838.84;;;8.50;76.76
51289;BME280;37372;52.294;5.152;2023-03-20T10:03:02;101844.22;;;8.43;77.86
51289;BME280;37372;52.294;5.152;2023-03-20T10:07:59;101838.75;;;8.58;76.06
51289;BME280;37372;52.294;5.152;2023-03-20T10:13:55;101845.84;;;8.74;75.32
51289;BME280;37372;52.294;5.152;2023-03-20T10:19:35;101830.28;;;8.74;75.87
51289;BME280;37372;52.294;5.152;2023-03-20T10:22:16;101840.38;;;8.52;77.12
51289;BME280;37372;52.294;5.152;2023-03-20T10:25:07;101837.81;;;8.51;76.54
51289;BME280;37372;52.294;5.152;2023-03-20T10:27:41;101836.59;;;8.53;76.94
51289;BME280;37372;52.294;5.152;2023-03-20T10:41:01;101831.69;;;8.34;78.48
51289;BME280;37372;52.294;5.152;2023-03-20T10:43:34;101830.72;;;8.56;76.94
51289;BME280;37372;52.294;5.152;2023-03-20T10:46:10;101823.56;;;8.55;76.84
51289;BME280;37372;52.294;5.152;2023-03-20T10:51:15;101819.78;;;8.56;78.20
51289;BME280;37372;52.294;5.152;2023-03-20T10:59:22;101814.00;;;8.45;77.83
51289;BME280;37372;52.294;5.152;2023-03-20T11:01:54;101821.03;;;8.54;78.61
51289;BME280;37372;52.294;5.152;2023-03-20T11:04:20;101815.69;;;8.67;77.88
51289;BME280;37372;52.294;5.152;2023-03-20T11:06:59;101821.63;;;8.71;77.66
51289;BME280;37372;52.294;5.152;2023-03-20T11:09:27;101810.22;;;8.88;77.07
51289;BME280;37372;52.294;5.152;2023-03-20T11:12:03;101813.63;;;8.90;77.93
51289;BME280;37372;52.294;5.152;2023-03-20T11:17:15;101802.28;;;8.72;77.90
51289;BME280;37372;52.294;5.152;2023-03-20T11:19:45;101801.16;;;8.88;77.00
51289;BME280;37372;52.294;5.152;2023-03-20T11:24:50;101803.03;;;8.87;79.43
51289;BME280;37372;52.294;5.152;2023-03-20T11:27:25;101789.09;;;9.04;77.85
51289;BME280;37372;52.294;5.152;2023-03-20T11:29:51;101791.44;;;9.07;77.17
51289;BME280;37372;52.294;5.152;2023-03-20T11:32:26;101789.25;;;8.74;79.36
51289;BME280;37372;52.294;5.152;2023-03-20T11:34:55;101796.66;;;8.80;77.90
51289;BME280;37372;52.294;5.152;2023-03-20T11:37:26;101795.91;;;8.65;78.77
51289;BME280;37372;52.294;5.152;2023-03-20T11:40:17;101796.09;;;8.63;78.77
51289;BME280;37372;52.294;5.152;2023-03-20T11:45:58;101795.34;;;8.55;79.73
51289;BME280;37372;52.294;5.152;2023-03-20T11:48:38;101812.88;;;8.39;79.99
51289;BME280;37372;52.294;5.152;2023-03-20T11:51:22;101808.63;;;8.36;81.98
51289;BME280;37372;52.294;5.152;2023-03-20T11:56:24;101797.81;;;8.50;81.88
51289;BME280;37372;52.294;5.152;2023-03-20T12:02:00;101796.16;;;8.70;81.56
51289;BME280;37372;52.294;5.152;2023-03-20T12:04:40;101786.91;;;8.92;80.12
51289;BME280;37372;52.294;5.152;2023-03-20T12:07:21;101787.66;;;9.08;80.71
51289;BME280;37372;52.294;5.152;2023-03-20T12:09:56;101783.88;;;9.09;79.11
51289;BME280;37372;52.294;5.152;2023-03-20T12:12:37;101788.38;;;8.95;80.12
51289;BME280;37372;52.294;5.152;2023-03-20T12:15:37;101787.69;;;8.86;79.77
51289;BME280;37372;52.294;5.152;2023-03-20T12:18:24;101783.06;;;8.65;81.16
51289;BME280;37372;52.294;5.152;2023-03-20T12:23:34;101780.34;;;8.65;82.65
51289;BME280;37372;52.294;5.152;2023-03-20T12:29:42;101782.16;;;8.80;82.15
51289;BME280;37372;52.294;5.152;2023-03-20T12:34:51;101773.63;;;8.68;82.53
51289;BME280;37372;52.294;5.152;2023-03-20T12:37:31;101777.97;;;8.62;81.77
51289;BME280;37372;52.294;5.152;2023-03-20T12:40:16;101779.16;;;8.53;82.92
51289;BME280;37372;52.294;5.152;2023-03-20T12:43:03;101772.06;;;8.59;82.22
51289;BME280;37372;52.294;5.152;2023-03-20T12:48:59;101769.69;;;8.56;82.50
51289;BME280;37372;52.294;5.152;2023-03-20T12:51:31;101769.41;;;8.44;82.90
51289;BME280;37372;52.294;5.152;2023-03-20T13:00:29;101758.22;;;8.88;81.73
51289;BME280;37372;52.294;5.152;2023-03-20T13:03:02;101757.31;;;8.81;82.29
51289;BME280;37372;52.294;5.152;2023-03-20T13:20:55;101755.13;;;8.70;81.88
51289;BME280;37372;52.294;5.152;2023-03-20T13:23:35;101754.28;;;8.70;83.20
51289;BME280;37372;52.294;5.152;2023-03-20T13:40:21;101738.19;;;8.60;83.22
51289;BME280;37372;52.294;5.152;2023-03-20T13:43:06;101729.59;;;8.63;83.49
51289;BME280;37372;52.294;5.152;2023-03-20T13:45:38;101732.47;;;8.55;83.62
51289;BME280;37372;52.294;5.152;2023-03-20T13:48:34;101731.47;;;8.62;83.28
51289;BME280;37372;52.294;5.152;2023-03-20T13:53:53;101727.94;;;8.68;82.34
51289;BME280;37372;52.294;5.152;2023-03-20T13:56:39;101722.31;;;8.70;83.45
51289;BME280;37372;52.294;5.152;2023-03-20T14:02:31;101719.81;;;8.75;82.70
51289;BME280;37372;52.294;5.152;2023-03-20T14:05:17;101722.09;;;8.72;83.46
51289;BME280;37372;52.294;5.152;2023-03-20T14:08:23;101722.47;;;8.68;83.74
51289;BME280;37372;52.294;5.152;2023-03-20T14:11:05;101723.50;;;8.39;84.06
51289;BME280;37372;52.294;5.152;2023-03-20T14:13:35;101726.09;;;8.48;83.77
51289;BME280;37372;52.294;5.152;2023-03-20T14:16:07;101721.66;;;8.47;84.33
51289;BME280;37372;52.294;5.152;2023-03-20T14:18:36;101724.41;;;8.47;85.10
51289;BME280;37372;52.294;5.152;2023-03-20T14:21:10;101729.28;;;8.51;84.46
51289;BME280;37372;52.294;5.152;2023-03-20T14:23:40;101728.03;;;8.54;84.78
51289;BME280;37372;52.294;5.152;2023-03-20T14:31:35;101721.66;;;8.47;85.53
51289;BME280;37372;52.294;5.152;2023-03-20T14:45:42;101716.34;;;8.38;85.76
51289;BME280;37372;52.294;5.152;2023-03-20T14:48:29;101711.25;;;8.35;85.91
51289;BME280;37372;52.294;5.152;2023-03-20T14:51:16;101709.41;;;8.43;86.28
51289;BME280;37372;52.294;5.152;2023-03-20T14:53:56;101707.78;;;8.48;85.86
51289;BME280;37372;52.294;5.152;2023-03-20T14:56:51;101710.88;;;8.38;84.86
51289;BME280;37372;52.294;5.152;2023-03-20T14:59:22;101700.97;;;8.37;86.05
51289;BME280;37372;52.294;5.152;2023-03-20T15:07:05;101699.38;;;8.50;86.12
51289;BME280;37372;52.294;5.152;2023-03-20T15:09:36;101695.69;;;8.36;85.84
51289;BME280;37372;52.294;5.152;2023-03-20T15:12:49;101695.09;;;8.40;86.19
51289;BME280;37372;52.294;5.152;2023-03-20T15:15:35;101685.72;;;8.50;85.49
51289;BME280;37372;52.294;5.152;2023-03-20T15:18:10;101685.72;;;8.50;85.68
51289;BME280;37372;52.294;5.152;2023-03-20T15:20:43;101689.69;;;8.47;86.03
51289;BME280;37372;52.294;5.152;2023-03-20T15:23:18;101681.69;;;8.46;85.99
51289;BME280;37372;52.294;5.152;2023-03-20T15:25:45;101689.91;;;8.46;86.27
51289;BME280;37372;52.294;5.152;2023-03-20T15:28:34;101688.38;;;8.43;86.34
51289;BME280;37372;52.294;5.152;2023-03-20T15:31:05;101685.84;;;8.41;86.61
51289;BME280;37372;52.294;5.152;2023-03-20T15:33:39;101694.06;;;8.41;86.44
51289;BME280;37372;52.294;5.152;2023-03-20T15:36:21;101693.00;;;8.43;86.02
51289;BME280;37372;52.294;5.152;2023-03-20T15:38:51;101683.19;;;8.48;86.91
51289;BME280;37372;52.294;5.152;2023-03-20T15:41:32;101693.41;;;8.39;86.46
51289;BME280;37372;52.294;5.152;2023-03-20T15:44:15;101686.59;;;8.50;86.64
51289;BME280;37372;52.294;5.152;2023-03-20T15:46:53;101686.50;;;8.44;87.22
51289;BME280;37372;52.294;5.152;2023-03-20T15:49:22;101682.59;;;8.53;86.69
51289;BME280;37372;52.294;5.152;2023-03-20T15:51:52;101683.75;;;8.44;87.13
51289;BME280;37372;52.294;5.152;2023-03-20T15:54:20;101686.44;;;8.37;87.22
51289;BME280;37372;52.294;5.152;2023-03-20T15:56:59;101680.38;;;8.41;87.25
51289;BME280;37372;52.294;5.152;2023-03-20T15:59:31;101675.50;;;8.37;87.08
51289;BME280;37372;52.294;5.152;2023-03-20T16:01:59;101671.97;;;8.43;87.51
51289;BME280;37372;52.294;5.152;2023-03-20T16:04:30;101676.22;;;8.46;87.27
51289;BME280;37372;52.294;5.152;2023-03-20T16:07:17;101669.00;;;8.38;87.46
51289;BME280;37372;52.294;5.152;2023-03-20T16:09:45;101674.53;;;8.45;87.50
51289;BME280;37372;52.294;5.152;2023-03-20T16:12:16;101673.50;;;8.46;87.56
51289;BME280;37372;52.294;5.152;2023-03-20T16:14:42;101671.34;;;8.41;87.74
51289;BME280;37372;52.294;5.152;2023-03-20T16:17:13;101674.91;;;8.41;87.96